Time;durP1;ratioP1;P1;durP2;ratioP2;P2;SDS_P1;SDS_P2;PMS_P1;PMS_P2;Temp;Humidity;BMP_temperature;BMP_pressure;BME280_temperature;BME280_humidity;BME280_pressure;Samples;Min_cycle;Max_cycle;Signal;HPM_P1;HPM_P2
2022/05/14 00:01:30;;;;;;;2.23;1.43;;;;;;;;;;5071699;28;20584;-76
2022/05/14 00:03:58;;;;;;;1.73;1.37;;;;;;;;;;5071422;28;20487;-77
2022/05/14 00:06:27;;;;;;;2.17;1.20;;;;;;;;;;5071528;28;20453;-76
2022/05/14 00:08:54;;;;;;;3.33;1.67;;;;;;;;;;5070828;28;20450;-76
2022/05/14 00:14:07;;;;;;;2.60;1.73;;;;;;;;;;5071482;28;20425;-76
2022/05/14 00:16:36;;;;;;;1.20;1.10;;;;;;;;;;5071154;28;20846;-76
2022/05/14 00:19:05;;;;;;;2.03;1.60;;;;;;;;;;5071417;28;20450;-76
2022/05/14 00:21:35;;;;;;;1.60;1.50;;;;;;;;;;5071902;28;20481;-76
2022/05/14 00:24:02;;;;;;;2.63;1.37;;;;;;;;;;5071740;28;20468;-77
2022/05/14 00:26:29;;;;;;;1.63;1.40;;;;;;;;;;5071330;28;20484;-77
2022/05/14 00:28:56;;;;;;;2.93;1.60;;;;;;;;;;5070553;28;20870;-77
2022/05/14 00:31:23;;;;;;;3.33;1.60;;;;;;;;;;5070752;28;20477;-77
2022/05/14 00:33:51;;;;;;;4.33;1.53;;;;;;;;;;5070755;28;20452;-76
2022/05/14 00:36:19;;;;;;;1.40;1.20;;;;;;;;;;5070703;28;20521;-77
2022/05/14 00:38:46;;;;;;;2.13;1.27;;;;;;;;;;5070413;28;20531;-76
2022/05/14 00:41:13;;;;;;;1.43;1.20;;;;;;;;;;5071449;28;20464;-77
2022/05/14 00:43:51;;;;;;;2.10;1.30;;;;;;;;;;5070653;28;20450;-77
2022/05/14 00:46:20;;;;;;;1.40;1.30;;;;;;;;;;5070452;28;20453;-77
2022/05/14 00:48:48;;;;;;;1.73;0.90;;;;;;;;;;5070057;28;20995;-77
2022/05/14 00:51:18;;;;;;;3.47;1.40;;;;;;;;;;5070877;28;20447;-76
2022/05/14 00:53:49;;;;;;;1.47;1.37;;;;;;;;;;5069838;28;21004;-76
2022/05/14 00:56:18;;;;;;;2.80;1.40;;;;;;;;;;5070592;28;20850;-77
2022/05/14 00:58:47;;;;;;;1.27;1.17;;;;;;;;;;5057317;28;20485;-77
2022/05/14 01:01:15;;;;;;;1.60;1.27;;;;;;;;;;5070253;28;20553;-77
2022/05/14 01:03:42;;;;;;;1.80;1.10;;;;;;;;;;5070535;28;20780;-77
2022/05/14 01:06:10;;;;;;;1.77;1.20;;;;;;;;;;5070731;28;20553;-76
2022/05/14 01:08:37;;;;;;;1.63;1.20;;;;;;;;;;5070676;28;20477;-77
2022/05/14 01:11:06;;;;;;;1.23;1.10;;;;;;;;;;5070764;28;20473;-76
2022/05/14 01:13:34;;;;;;;2.87;1.50;;;;;;;;;;5073342;28;20539;-76
2022/05/14 01:16:02;;;;;;;1.50;1.20;;;;;;;;;;5074679;28;20488;-77
2022/05/14 01:18:30;;;;;;;3.53;1.10;;;;;;;;;;5075479;28;20449;-77
2022/05/14 01:20:59;;;;;;;2.27;1.60;;;;;;;;;;5074508;28;20842;-77
2022/05/14 01:23:32;;;;;;;3.00;1.00;;;;;;;;;;5075213;28;20452;-77
2022/05/14 01:26:30;;;;;;;3.20;1.10;;;;;;;;;;5074976;28;20452;-77
2022/05/14 01:28:59;;;;;;;1.80;1.53;;;;;;;;;;5074280;28;20440;-77
2022/05/14 01:31:27;;;;;;;1.87;1.30;;;;;;;;;;5074621;28;20497;-77
2022/05/14 01:33:54;;;;;;;1.40;1.13;;;;;;;;;;5073909;28;21343;-77
2022/05/14 01:36:21;;;;;;;2.20;1.50;;;;;;;;;;5074223;28;20570;-77
2022/05/14 01:38:49;;;;;;;1.10;0.97;;;;;;;;;;5073993;28;20454;-77
2022/05/14 01:41:18;;;;;;;1.23;1.00;;;;;;;;;;5074779;28;20502;-76
2022/05/14 01:43:45;;;;;;;1.53;1.43;;;;;;;;;;5074054;28;20452;-76
2022/05/14 01:46:12;;;;;;;1.63;1.27;;;;;;;;;;5073863;28;20448;-75
2022/05/14 01:48:39;;;;;;;1.20;1.10;;;;;;;;;;5074185;28;20525;-76
2022/05/14 01:51:07;;;;;;;5.90;1.83;;;;;;;;;;5074329;28;20460;-76
2022/05/14 01:53:34;;;;;;;2.60;1.40;;;;;;;;;;5074191;28;21046;-75
2022/05/14 01:56:01;;;;;;;1.20;1.10;;;;;;;;;;5074166;28;20451;-76
2022/05/14 01:58:39;;;;;;;1.77;1.40;;;;;;;;;;5074036;28;20447;-76
2022/05/14 02:01:08;;;;;;;4.33;1.47;;;;;;;;;;5074105;28;20492;-77
2022/05/14 02:03:35;;;;;;;3.80;1.43;;;;;;;;;;5072086;28;20957;-76
2022/05/14 02:06:02;;;;;;;1.20;1.10;;;;;;;;;;5070865;28;20486;-74
2022/05/14 02:08:30;;;;;;;3.63;1.17;;;;;;;;;;5070846;28;20468;-73
2022/05/14 02:10:57;;;;;;;1.47;1.20;;;;;;;;;;5070468;28;20457;-74
2022/05/14 02:13:25;;;;;;;1.03;0.93;;;;;;;;;;5071322;28;20454;-73
2022/05/14 02:15:54;;;;;;;1.10;1.00;;;;;;;;;;5070211;28;20453;-73
2022/05/14 02:18:21;;;;;;;1.87;1.67;;;;;;;;;;5071103;28;20483;-74
2022/05/14 02:20:48;;;;;;;1.03;0.80;;;;;;;;;;5070497;28;20457;-76
2022/05/14 02:23:15;;;;;;;1.60;1.40;;;;;;;;;;5075471;28;20853;-75
2022/05/14 02:25:43;;;;;;;1.20;0.87;;;;;;;;;;5068611;28;20858;-77
2022/05/14 02:28:11;;;;;;;2.10;1.33;;;;;;;;;;5071487;28;20466;-76
2022/05/14 02:30:38;;;;;;;1.90;1.47;;;;;;;;;;5069879;28;20574;-74
2022/05/14 02:33:07;;;;;;;1.50;1.10;;;;;;;;;;5070707;28;20456;-72
2022/05/14 02:35:34;;;;;;;1.50;1.40;;;;;;;;;;5069833;28;20451;-72
2022/05/14 02:38:01;;;;;;;4.20;1.40;;;;;;;;;;5070858;28;20487;-73
2022/05/14 02:40:29;;;;;;;1.40;1.13;;;;;;;;;;5070945;28;20552;-74
2022/05/14 02:42:56;;;;;;;1.43;1.13;;;;;;;;;;5069333;28;20908;-76
2022/05/14 02:45:24;;;;;;;1.80;1.00;;;;;;;;;;5070827;28;20447;-74
2022/05/14 02:47:51;;;;;;;1.27;1.07;;;;;;;;;;5070041;28;20455;-74
2022/05/14 02:50:20;;;;;;;1.83;0.90;;;;;;;;;;5070840;28;20477;-73
2022/05/14 02:52:47;;;;;;;1.80;1.30;;;;;;;;;;5070451;28;20458;-73
2022/05/14 02:55:14;;;;;;;2.27;1.47;;;;;;;;;;5070496;28;20467;-73
2022/05/14 02:57:41;;;;;;;1.70;1.17;;;;;;;;;;5069730;28;20492;-73
2022/05/14 03:00:10;;;;;;;5.70;1.10;;;;;;;;;;5070390;28;20463;-73
2022/05/14 03:02:37;;;;;;;2.03;1.27;;;;;;;;;;5069478;28;20958;-73
2022/05/14 03:05:05;;;;;;;4.23;1.20;;;;;;;;;;5070264;28;20810;-73
2022/05/14 03:07:34;;;;;;;2.07;1.23;;;;;;;;;;5069835;28;20455;-74
2022/05/14 03:10:01;;;;;;;4.07;1.33;;;;;;;;;;5069738;28;20973;-74
2022/05/14 03:12:28;;;;;;;1.70;1.20;;;;;;;;;;5070245;28;20448;-74
2022/05/14 03:14:55;;;;;;;2.40;1.37;;;;;;;;;;5056469;28;20543;-73
2022/05/14 03:17:22;;;;;;;1.30;1.10;;;;;;;;;;5070003;28;20483;-73
2022/05/14 03:19:50;;;;;;;3.10;1.37;;;;;;;;;;5069464;28;20482;-73
2022/05/14 03:22:17;;;;;;;3.83;1.53;;;;;;;;;;5070438;28;20457;-73
2022/05/14 03:24:46;;;;;;;3.90;1.73;;;;;;;;;;5067866;28;20450;-73
2022/05/14 03:27:13;;;;;;;1.67;1.27;;;;;;;;;;5069875;28;20449;-73
2022/05/14 03:29:41;;;;;;;1.17;1.00;;;;;;;;;;5070477;28;20447;-73
2022/05/14 03:32:08;;;;;;;2.00;1.30;;;;;;;;;;5072289;28;20478;-73
2022/05/14 03:34:37;;;;;;;1.50;1.40;;;;;;;;;;5071417;28;20842;-72
2022/05/14 03:37:04;;;;;;;1.50;1.30;;;;;;;;;;5071522;28;20484;-73
2022/05/14 03:39:31;;;;;;;1.60;1.20;;;;;;;;;;5071884;28;20534;-73
2022/05/14 03:42:00;;;;;;;1.80;1.10;;;;;;;;;;5071572;28;20530;-73
2022/05/14 03:44:27;;;;;;;5.07;1.70;;;;;;;;;;5076153;28;20526;-73
2022/05/14 03:46:54;;;;;;;1.73;1.30;;;;;;;;;;5073573;28;20782;-73
2022/05/14 03:49:21;;;;;;;1.20;1.10;;;;;;;;;;5065230;28;20476;-72
2022/05/14 03:51:49;;;;;;;1.57;1.37;;;;;;;;;;5068577;28;20452;-74
2022/05/14 03:54:16;;;;;;;5.67;1.73;;;;;;;;;;5073081;28;20454;-74
2022/05/14 03:56:43;;;;;;;1.20;1.10;;;;;;;;;;5071015;28;20451;-74
2022/05/14 03:59:12;;;;;;;4.67;1.70;;;;;;;;;;5069738;28;20973;-74
2022/05/14 04:01:39;;;;;;;1.90;1.20;;;;;;;;;;5070573;28;20457;-74
2022/05/14 04:04:06;;;;;;;7.70;1.23;;;;;;;;;;5068822;28;20470;-75
2022/05/14 04:06:34;;;;;;;2.23;1.80;;;;;;;;;;5068184;28;20839;-74
2022/05/14 04:09:02;;;;;;;3.00;1.20;;;;;;;;;;5072044;28;20499;-76
2022/05/14 04:11:29;;;;;;;1.87;1.40;;;;;;;;;;5071855;28;20529;-76
2022/05/14 04:13:57;;;;;;;2.80;1.57;;;;;;;;;;5071314;28;20543;-76
2022/05/14 04:16:25;;;;;;;3.70;1.50;;;;;;;;;;5071030;28;20904;-77
2022/05/14 04:18:52;;;;;;;6.60;1.30;;;;;;;;;;5070980;28;20491;-75
2022/05/14 04:21:19;;;;;;;1.70;1.20;;;;;;;;;;5071559;28;20516;-75
2022/05/14 04:23:47;;;;;;;2.30;1.70;;;;;;;;;;5071211;28;20535;-75
2022/05/14 04:26:14;;;;;;;3.23;1.37;;;;;;;;;;5071039;28;20769;-75
2022/05/14 04:28:41;;;;;;;3.00;1.70;;;;;;;;;;5071028;28;20543;-75
2022/05/14 04:31:09;;;;;;;2.00;1.40;;;;;;;;;;5071367;28;20481;-75
2022/05/14 04:33:37;;;;;;;2.97;1.67;;;;;;;;;;5070294;28;20472;-75
2022/05/14 04:36:04;;;;;;;1.83;1.17;;;;;;;;;;5070835;28;20918;-75
2022/05/14 04:38:31;;;;;;;2.40;1.40;;;;;;;;;;5071380;28;20569;-75
2022/05/14 04:40:59;;;;;;;2.30;1.50;;;;;;;;;;5070900;28;20475;-75
2022/05/14 04:43:26;;;;;;;2.63;1.37;;;;;;;;;;5071229;28;20482;-75
2022/05/14 04:45:53;;;;;;;1.30;1.20;;;;;;;;;;5070094;28;20452;-75
2022/05/14 04:48:21;;;;;;;2.83;1.20;;;;;;;;;;5069975;28;20463;-75
2022/05/14 04:50:50;;;;;;;1.30;1.10;;;;;;;;;;5070707;28;20472;-75
2022/05/14 04:53:17;;;;;;;2.03;1.53;;;;;;;;;;5071338;28;20454;-75
2022/05/14 04:55:47;;;;;;;1.50;1.40;;;;;;;;;;5070192;28;20534;-75
2022/05/14 04:58:15;;;;;;;2.40;1.10;;;;;;;;;;5071151;28;20482;-76
2022/05/14 05:00:42;;;;;;;5.03;1.93;;;;;;;;;;5070505;28;20466;-75
2022/05/14 05:03:17;;;;;;;2.10;1.90;;;;;;;;;;5070660;28;20480;-76
2022/05/14 05:05:45;;;;;;;1.50;1.40;;;;;;;;;;5070236;28;20448;-75
2022/05/14 05:08:14;;;;;;;2.13;1.53;;;;;;;;;;5071156;28;20448;-76
2022/05/14 05:10:41;;;;;;;2.27;1.67;;;;;;;;;;5070494;28;20451;-76
2022/05/14 05:13:12;;;;;;;1.40;1.30;;;;;;;;;;5070445;28;20447;-76
2022/05/14 05:15:40;;;;;;;2.00;1.70;;;;;;;;;;5069556;28;20451;-75
2022/05/14 05:18:07;;;;;;;5.53;1.90;;;;;;;;;;5070167;28;20558;-76
2022/05/14 05:20:35;;;;;;;3.17;1.40;;;;;;;;;;5070577;28;20460;-76
2022/05/14 05:23:02;;;;;;;1.77;1.63;;;;;;;;;;5070988;28;20456;-76
2022/05/14 05:25:31;;;;;;;3.63;1.33;;;;;;;;;;5070188;28;20442;-75
2022/05/14 05:27:58;;;;;;;2.10;1.30;;;;;;;;;;5069979;28;20525;-76
2022/05/14 05:30:26;;;;;;;3.87;1.70;;;;;;;;;;5070394;28;21157;-75
2022/05/14 05:32:53;;;;;;;1.63;1.40;;;;;;;;;;5070509;28;20814;-76
2022/05/14 05:35:21;;;;;;;2.20;1.40;;;;;;;;;;5070596;28;20872;-75
2022/05/14 05:37:48;;;;;;;3.10;1.60;;;;;;;;;;5070483;28;20488;-76
2022/05/14 05:40:16;;;;;;;3.17;2.00;;;;;;;;;;5070965;28;20450;-76
2022/05/14 05:42:45;;;;;;;3.33;1.50;;;;;;;;;;5070482;28;20446;-76
2022/05/14 05:45:13;;;;;;;3.73;1.57;;;;;;;;;;5070680;28;20884;-76
2022/05/14 05:47:40;;;;;;;2.20;1.87;;;;;;;;;;5069775;28;20932;-76
2022/05/14 05:50:08;;;;;;;1.37;1.27;;;;;;;;;;5070525;28;20451;-76
2022/05/14 05:52:35;;;;;;;1.40;1.30;;;;;;;;;;5070228;28;20534;-74
2022/05/14 05:57:49;;;;;;;4.80;1.53;;;;;;;;;;5069816;28;20493;-77
2022/05/14 06:00:18;;;;;;;1.43;1.23;;;;;;;;;;5073334;28;20463;-75
2022/05/14 06:02:46;;;;;;;2.30;1.40;;;;;;;;;;5073496;28;20805;-76
2022/05/14 06:05:13;;;;;;;3.03;1.67;;;;;;;;;;5060707;28;20444;-76
2022/05/14 06:07:40;;;;;;;1.70;1.60;;;;;;;;;;5073818;28;20453;-76
2022/05/14 06:10:09;;;;;;;1.60;1.33;;;;;;;;;;5074303;28;20442;-75
2022/05/14 06:12:38;;;;;;;1.40;1.20;;;;;;;;;;5073536;28;20460;-75
2022/05/14 06:15:07;;;;;;;1.20;1.10;;;;;;;;;;5074197;28;20560;-76
2022/05/14 06:17:35;;;;;;;5.37;1.50;;;;;;;;;;5073172;28;20445;-74
2022/05/14 06:20:02;;;;;;;3.53;1.20;;;;;;;;;;5074177;28;20461;-75
2022/05/14 06:22:29;;;;;;;2.40;1.47;;;;;;;;;;5074267;28;20773;-76
2022/05/14 06:24:56;;;;;;;4.43;1.07;;;;;;;;;;5073205;28;20451;-76
2022/05/14 06:27:23;;;;;;;1.67;0.97;;;;;;;;;;5073452;28;20441;-76
2022/05/14 06:29:51;;;;;;;6.47;1.17;;;;;;;;;;5072988;28;20487;-76
2022/05/14 06:32:19;;;;;;;2.80;1.40;;;;;;;;;;5072974;28;20987;-77
2022/05/14 06:34:46;;;;;;;2.40;1.50;;;;;;;;;;5073141;28;20536;-76
2022/05/14 06:37:13;;;;;;;1.40;1.30;;;;;;;;;;5073179;28;20549;-76
2022/05/14 06:39:41;;;;;;;1.17;1.07;;;;;;;;;;5072710;28;20481;-76
2022/05/14 06:42:08;;;;;;;4.03;1.00;;;;;;;;;;5073243;28;20457;-76
2022/05/14 06:44:36;;;;;;;2.10;1.23;;;;;;;;;;5073151;28;20449;-76
2022/05/14 06:47:03;;;;;;;1.30;1.20;;;;;;;;;;5072686;28;20535;-77
2022/05/14 06:49:31;;;;;;;1.23;1.00;;;;;;;;;;5073550;28;20533;-78
2022/05/14 06:52:00;;;;;;;7.33;1.27;;;;;;;;;;5072477;28;20458;-76
2022/05/14 06:54:28;;;;;;;1.43;1.20;;;;;;;;;;5073417;28;20458;-77
2022/05/14 06:56:55;;;;;;;1.93;1.30;;;;;;;;;;5072046;28;20861;-76
2022/05/14 06:59:23;;;;;;;2.23;1.30;;;;;;;;;;5072813;28;21000;-76
2022/05/14 07:01:50;;;;;;;2.20;1.03;;;;;;;;;;5072090;28;20842;-75
2022/05/14 07:07:05;;;;;;;4.67;1.00;;;;;;;;;;5072802;28;20883;-77
2022/05/14 07:09:33;;;;;;;1.60;1.20;;;;;;;;;;5073199;28;20458;-77
2022/05/14 07:12:03;;;;;;;3.20;1.77;;;;;;;;;;5071962;28;20449;-76
2022/05/14 07:14:30;;;;;;;7.03;1.10;;;;;;;;;;5072736;28;20457;-76
2022/05/14 07:16:58;;;;;;;3.87;1.20;;;;;;;;;;5071115;28;21118;-76
2022/05/14 07:19:26;;;;;;;6.87;0.90;;;;;;;;;;5072035;28;21067;-76
2022/05/14 07:21:54;;;;;;;1.40;1.00;;;;;;;;;;5071655;28;20456;-76
2022/05/14 07:24:24;;;;;;;1.20;0.73;;;;;;;;;;5072392;28;20469;-77
2022/05/14 07:26:51;;;;;;;1.30;1.00;;;;;;;;;;5071504;28;20446;-76
2022/05/14 07:29:20;;;;;;;1.40;0.90;;;;;;;;;;5072125;28;20877;-76
2022/05/14 07:31:47;;;;;;;1.13;0.80;;;;;;;;;;5072069;28;20474;-75
2022/05/14 07:34:15;;;;;;;1.43;0.90;;;;;;;;;;5071929;28;20541;-75
2022/05/14 07:36:57;;;;;;;1.87;0.80;;;;;;;;;;5071523;28;20554;-77
2022/05/14 07:39:29;;;;;;;2.30;1.00;;;;;;;;;;5072469;28;20507;-77
2022/05/14 07:41:58;;;;;;;2.97;1.10;;;;;;;;;;5072096;28;20880;-75
2022/05/14 07:44:27;;;;;;;4.67;1.20;;;;;;;;;;5072167;28;20456;-76
2022/05/14 07:46:55;;;;;;;3.00;1.00;;;;;;;;;;5071419;28;20472;-76
2022/05/14 07:49:23;;;;;;;0.90;0.80;;;;;;;;;;5072213;28;20453;-76
2022/05/14 07:51:50;;;;;;;2.93;1.13;;;;;;;;;;5071602;28;20533;-76
2022/05/14 07:54:17;;;;;;;2.40;1.57;;;;;;;;;;5072283;28;20446;-77
2022/05/14 07:56:46;;;;;;;1.70;1.10;;;;;;;;;;5071163;28;20536;-75
2022/05/14 07:59:15;;;;;;;5.00;1.87;;;;;;;;;;5072050;28;20482;-75
2022/05/14 08:01:42;;;;;;;4.23;1.70;;;;;;;;;;5071227;28;20487;-76
2022/05/14 08:04:09;;;;;;;3.47;1.83;;;;;;;;;;5071704;28;20640;-76
2022/05/14 08:06:36;;;;;;;3.57;1.10;;;;;;;;;;5070677;28;20457;-75
2022/05/14 08:09:04;;;;;;;2.83;1.40;;;;;;;;;;5071791;28;20484;-75
2022/05/14 08:11:32;;;;;;;1.70;1.40;;;;;;;;;;5071985;28;20473;-77
2022/05/14 08:14:00;;;;;;;2.33;1.27;;;;;;;;;;5071609;28;20469;-77
2022/05/14 08:16:28;;;;;;;1.93;1.40;;;;;;;;;;5071199;28;20458;-76
2022/05/14 08:18:55;;;;;;;1.67;1.30;;;;;;;;;;5071065;28;20481;-77
2022/05/14 08:26:53;;;;;;;3.90;1.33;;;;;;;;;;5070356;28;20421;-77
2022/05/14 08:29:22;;;;;;;1.60;1.20;;;;;;;;;;5071230;28;20458;-77
2022/05/14 08:31:50;;;;;;;1.60;1.27;;;;;;;;;;5071087;28;20484;-77
2022/05/14 08:34:17;;;;;;;1.50;1.30;;;;;;;;;;5071402;28;20508;-77
2022/05/14 08:36:44;;;;;;;2.60;1.40;;;;;;;;;;5070329;28;20449;-76
2022/05/14 08:39:12;;;;;;;4.33;1.50;;;;;;;;;;5070894;28;21055;-77
2022/05/14 08:41:43;;;;;;;2.93;1.30;;;;;;;;;;5070759;28;20548;-76
2022/05/14 08:44:12;;;;;;;5.40;1.30;;;;;;;;;;5071108;28;20979;-77
2022/05/14 08:46:41;;;;;;;1.70;1.60;;;;;;;;;;5070089;28;20450;-77
2022/05/14 08:49:11;;;;;;;1.20;1.10;;;;;;;;;;5071117;28;20472;-76
2022/05/14 08:51:40;;;;;;;1.80;1.30;;;;;;;;;;5070790;28;20448;-77
2022/05/14 08:54:08;;;;;;;2.50;1.13;;;;;;;;;;5071434;28;20545;-76
2022/05/14 08:56:43;;;;;;;3.43;1.47;;;24.80;1.00;;;;;;5070211;28;20452;-76
2022/05/14 08:59:34;;;;;;;2.67;1.33;;;19.80;99.90;;;;;;5071204;28;20563;-76
2022/05/14 09:02:08;;;;;;;2.63;1.10;;;19.60;99.90;;;;;;5058302;28;20445;-76
2022/05/14 09:04:35;;;;;;;2.57;1.23;;;19.70;99.90;;;;;;5069607;28;20438;-76
2022/05/14 09:07:02;;;;;;;2.07;1.33;;;19.80;99.90;;;;;;5068008;28;20466;-71
2022/05/14 09:09:29;;;;;;;1.80;1.10;;;19.90;99.90;;;;;;5066014;28;20484;-73
2022/05/14 09:11:59;;;;;;;2.20;1.07;;;20.00;99.90;;;;;;5068944;28;20452;-71
2022/05/14 09:14:28;;;;;;;2.10;1.10;;;20.00;99.90;;;;;;5061617;28;20455;-71
2022/05/14 09:17:13;;;;;;;2.00;1.00;;;20.00;99.90;;;;;;5061802;28;20550;-71
2022/05/14 09:19:43;;;;;;;1.40;1.30;;;20.00;99.90;;;;;;5065330;28;20511;-71
2022/05/14 09:22:14;;;;;;;5.23;1.37;;;20.00;99.90;;;;;;5066885;28;20816;-74
2022/05/14 09:24:46;;;;;;;2.80;1.20;;;20.30;99.90;;;;;;5068296;28;20966;-73
2022/05/14 09:27:22;;;;;;;2.47;1.00;;;20.30;99.90;;;;;;5069348;28;20533;-73
2022/05/14 09:29:53;;;;;;;1.20;1.10;;;20.40;99.90;;;;;;5069323;28;20453;-74
2022/05/14 09:32:34;;;;;;;1.87;1.00;;;20.50;99.90;;;;;;5069771;28;20452;-73
2022/05/14 09:35:20;;;;;;;3.00;1.77;;;20.50;99.90;;;;;;5072125;28;20948;-73
2022/05/14 09:37:47;;;;;;;4.00;1.73;;;20.60;99.90;;;;;;5074082;28;20445;-73
2022/05/14 09:40:21;;;;;;;1.50;1.10;;;20.60;99.90;;;;;;5074020;28;20509;-73
2022/05/14 09:42:52;;;;;;;3.33;1.10;;;20.80;97.30;;;;;;5074433;28;20730;-73
2022/05/14 09:45:28;;;;;;;1.37;1.10;;;21.00;94.90;;;;;;5074206;28;20863;-73
2022/05/14 09:47:56;;;;;;;1.73;1.00;;;20.90;94.90;;;;;;5073655;28;20973;-73
2022/05/14 09:50:29;;;;;;;2.87;1.37;;;20.90;95.50;;;;;;5074169;28;20449;-73
2022/05/14 09:53:01;;;;;;;2.17;1.30;;;20.80;94.20;;;;;;5073442;28;20452;-73
2022/05/14 09:55:51;;;;;;;2.30;1.20;;;20.90;96.30;;;;;;5070552;28;20958;-73
2022/05/14 09:58:28;;;;;;;1.30;0.90;;;21.00;93.90;;;;;;5069395;28;20823;-73
2022/05/14 10:01:04;;;;;;;1.50;1.13;;;21.10;90.90;;;;;;5069731;28;20511;-73
2022/05/14 10:04:01;;;;;;;1.30;1.20;;;21.20;85.90;;;;;;5073741;28;20490;-73
2022/05/14 10:06:38;;;;;;;1.03;0.80;;;21.30;94.00;;;;;;5052936;28;20450;-74
2022/05/14 10:09:15;;;;;;;1.30;1.20;;;21.30;76.60;;;;;;5073914;28;20545;-73
2022/05/14 10:11:44;;;;;;;1.30;0.93;;;21.20;71.20;;;;;;5072969;28;20456;-72
2022/05/14 10:14:27;;;;;;;1.27;0.93;;;21.30;71.00;;;;;;5073390;28;20450;-72
2022/05/14 10:17:07;;;;;;;1.10;1.00;;;21.50;68.70;;;;;;5072509;28;20442;-72
2022/05/14 10:20:05;;;;;;;1.27;1.07;;;21.70;64.40;;;;;;5073234;28;20479;-72
2022/05/14 10:28:22;;;;;;;1.27;1.10;;;21.50;64.30;;;;;;5072469;28;20437;-73
2022/05/14 10:30:55;;;;;;;2.97;1.93;;;21.70;60.30;;;;;;5069531;28;20485;-73
2022/05/14 10:33:28;;;;;;;2.10;1.20;;;22.00;70.60;;;;;;5073705;28;20532;-73
2022/05/14 10:36:03;;;;;;;1.37;1.10;;;22.10;51.80;;;;;;5072183;28;20466;-73
2022/05/14 10:38:35;;;;;;;2.00;1.40;;;22.10;47.70;;;;;;5073001;28;20445;-73
2022/05/14 10:41:07;;;;;;;1.20;1.10;;;22.00;46.60;;;;;;5072909;28;20532;-73
2022/05/14 10:43:39;;;;;;;2.17;1.10;;;;;;;;;;5073389;28;20448;-73
2022/05/14 10:46:09;;;;;;;2.20;1.10;;;;;;;;;;5071531;28;20524;-74
2022/05/14 10:48:43;;;;;;;2.20;1.43;;;;;;;;;;5072268;28;20442;-73
2022/05/14 10:51:13;;;;;;;1.40;1.10;;;;;;;;;;5073562;28;20445;-73
2022/05/14 10:53:41;;;;;;;1.40;1.27;;;;;;;;;;5072040;28;20536;-73
2022/05/14 10:56:10;;;;;;;0.97;0.87;;;;;;;;;;5072368;28;20454;-73
2022/05/14 10:58:43;;;;;;;1.90;1.07;;;;;;;;;;5072636;28;20441;-73
2022/05/14 11:01:10;;;;;;;2.70;1.00;;;;;;;;;;5073199;28;20480;-73
2022/05/14 11:03:40;;;;;;;2.40;1.07;;;;;;;;;;5065448;28;20967;-73
2022/05/14 11:06:09;;;;;;;0.87;0.80;;;;;;;;;;5072518;28;20446;-73
2022/05/14 11:08:39;;;;;;;1.20;0.90;;;;;;;;;;5072772;28;20937;-73
2022/05/14 11:11:08;;;;;;;3.83;1.27;;;;;;;;;;5072385;28;20541;-73
2022/05/14 11:13:36;;;;;;;1.20;1.00;;;;;;;;;;5072368;28;20812;-73
2022/05/14 11:16:05;;;;;;;1.33;0.77;;;;;;;;;;5072325;28;20821;-73
2022/05/14 11:18:43;;;;;;;1.37;0.97;;;;;;;;;;5072210;28;20445;-73
2022/05/14 11:21:11;;;;;;;1.13;1.00;;;;;;;;;;5069701;28;20497;-71
2022/05/14 11:23:48;;;;;;;2.53;1.43;;;;;;;;;;5069862;28;20838;-71
2022/05/14 11:26:16;;;;;;;1.23;1.13;;;;;;;;;;5071384;28;20876;-72
2022/05/14 11:28:44;;;;;;;2.20;1.30;;;;;;;;;;5071908;28;20533;-76
2022/05/14 11:31:15;;;;;;;2.50;1.00;;;;;;;;;;5064559;28;20477;-75
2022/05/14 11:33:42;;;;;;;1.30;1.00;;;;;;;;;;5071245;28;20434;-75
2022/05/14 11:36:20;;;;;;;0.90;0.77;;;;;;;;;;5071222;28;20449;-76
2022/05/14 11:38:53;;;;;;;1.03;0.87;;;;;;;;;;5071299;28;20795;-77
2022/05/14 11:41:27;;;;;;;2.00;0.83;;;;;;;;;;5072287;28;20452;-75
2022/05/14 11:43:55;;;;;;;1.43;1.03;;;;;;;;;;5070261;28;20573;-74
2022/05/14 11:46:27;;;;;;;3.23;1.10;;;;;;;;;;5069179;28;20563;-73
2022/05/14 11:48:55;;;;;;;1.80;0.90;;;;;;;;;;5071636;28;20822;-78
2022/05/14 11:51:29;;;;;;;2.23;1.03;;;;;;;;;;5072287;28;20570;-77
2022/05/14 11:54:04;;;;;;;0.97;0.87;;;;;;;;;;5059299;28;20526;-76
2022/05/14 11:56:34;;;;;;;1.13;1.00;;;;;;;;;;5071630;28;20446;-77
2022/05/14 11:59:04;;;;;;;0.90;0.90;;;;;;;;;;5072221;28;20929;-77
2022/05/14 12:01:34;;;;;;;1.47;0.83;;;;;;;;;;5072218;28;20560;-77
2022/05/14 12:04:03;;;;;;;1.30;0.90;;;;;;;;;;5072070;28;20452;-77
2022/05/14 12:06:48;;;;;;;2.17;0.77;;;;;;;;;;5071369;28;20453;-76
2022/05/14 12:09:24;;;;;;;0.80;0.80;;;;;;;;;;5072241;28;20441;-77
2022/05/14 12:11:58;;;;;;;2.90;1.10;;;;;;;;;;5071293;28;20453;-77
2022/05/14 12:14:30;;;;;;;1.10;1.00;;;;;;;;;;5071541;28;20456;-76
2022/05/14 12:16:58;;;;;;;1.13;1.03;;;;;;;;;;5070693;28;20532;-77
2022/05/14 12:19:26;;;;;;;2.50;1.23;;;;;;;;;;5071393;28;20612;-77
2022/05/14 12:21:55;;;;;;;0.80;0.70;;;;;;;;;;5071218;28;20442;-76
2022/05/14 12:24:24;;;;;;;1.67;0.90;;;;;;;;;;5071226;28;20524;-76
2022/05/14 12:26:52;;;;;;;2.00;1.10;;;;;;;;;;5070667;28;20473;-76
2022/05/14 12:29:22;;;;;;;3.43;1.00;;;;;;;;;;5071082;28;20945;-76
2022/05/14 12:34:41;;;;;;;1.30;0.80;;;;;;;;;;5059475;28;20420;-76
2022/05/14 12:37:17;;;;;;;5.20;1.13;;;;;;;;;;5071279;28;20446;-77
2022/05/14 12:39:46;;;;;;;1.37;1.00;;;;;;;;;;5070686;28;20469;-77
2022/05/14 12:42:14;;;;;;;0.80;0.70;;;;;;;;;;5071445;28;20450;-76
2022/05/14 12:44:44;;;;;;;1.53;0.80;;;;;;;;;;5070178;28;20967;-76
2022/05/14 12:47:11;;;;;;;0.90;0.80;;;;;;;;;;5070893;28;20450;-75
2022/05/14 12:49:39;;;;;;;2.57;1.03;;;;;;;;;;5070642;28;20445;-75
2022/05/14 12:52:08;;;;;;;1.40;1.10;;;;;;;;;;5071217;28;20453;-77
2022/05/14 12:54:36;;;;;;;1.57;1.00;;;;;;;;;;5070219;28;21013;-75
2022/05/14 12:57:06;;;;;;;1.00;1.00;;;;;;;;;;5071283;28;20453;-76
2022/05/14 12:59:35;;;;;;;0.80;0.80;;;;;;;;;;5067404;28;20474;-76
2022/05/14 13:02:04;;;;;;;1.30;0.90;;;;;;;;;;5068216;28;20450;-74
2022/05/14 13:04:34;;;;;;;0.83;0.70;;;;;;;;;;5068018;28;20468;-75
2022/05/14 13:07:03;;;;;;;1.30;0.83;;;;;;;;;;5068371;28;20477;-74
2022/05/14 13:09:30;;;;;;;1.10;1.00;;;;;;;;;;5067935;28;20548;-73
2022/05/14 13:11:59;;;;;;;3.13;1.03;;;;;;;;;;5067239;28;20450;-73
2022/05/14 13:14:29;;;;;;;1.07;0.90;;;;;;;;;;5068373;28;20446;-74
2022/05/14 13:16:57;;;;;;;0.90;0.60;;;;;;;;;;5067802;28;20941;-73
2022/05/14 13:19:32;;;;;;;0.97;0.87;;;;;;;;;;5068032;28;20515;-75
2022/05/14 13:21:59;;;;;;;2.40;0.83;;;;;;;;;;5067578;28;20967;-72
2022/05/14 13:24:27;;;;;;;1.27;0.83;;;;;;;;;;5068146;28;20456;-72
2022/05/14 13:26:55;;;;;;;1.10;0.70;;;;;;;;;;5068003;28;20809;-74
2022/05/14 13:29:25;;;;;;;0.87;0.73;;;;;;;;;;5068340;28;20540;-74
2022/05/14 13:32:05;;;;;;;0.80;0.60;;;;;;;;;;5067753;28;20535;-74
2022/05/14 13:37:19;;;;;;;1.17;1.07;;;;;;;;;;5068189;28;20564;-74
2022/05/14 13:39:49;;;;;;;2.20;0.83;;;;;;;;;;5067488;28;20945;-74
2022/05/14 13:42:22;;;;;;;1.17;0.93;;;;;;;;;;5068345;28;20446;-74
2022/05/14 13:44:51;;;;;;;1.00;0.70;;;;;;;;;;5066626;28;20540;-74
2022/05/14 13:47:22;;;;;;;1.10;1.00;;;;;;;;;;5054382;28;20545;-74
2022/05/14 13:49:53;;;;;;;0.80;0.70;;;;;;;;;;5067003;28;20445;-75
2022/05/14 13:52:25;;;;;;;1.00;0.73;;;;;;;;;;5067459;28;20965;-75
2022/05/14 13:55:01;;;;;;;1.20;0.87;;;;;;;;;;5065002;28;20446;-75
2022/05/14 13:57:28;;;;;;;0.60;0.60;;;;;;;;;;5067849;28;20899;-74
2022/05/14 14:00:03;;;;;;;1.00;0.90;;;;;;;;;;5066730;28;20496;-74
2022/05/14 14:02:31;;;;;;;1.20;1.10;;;;;;;;;;5068146;28;20498;-75
2022/05/14 14:05:00;;;;;;;1.53;1.00;;;;;;;;;;5066786;28;20502;-72
2022/05/14 14:07:29;;;;;;;0.93;0.83;;;;;;;;;;5068363;28;20817;-75
2022/05/14 14:09:56;;;;;;;2.17;0.93;;;;;;;;;;5067252;28;20544;-75
2022/05/14 14:12:25;;;;;;;0.90;0.90;;;;;;;;;;5067304;28;20485;-75
2022/05/14 14:14:52;;;;;;;2.20;1.00;;;;;;;;;;5066949;28;20484;-75
2022/05/14 14:17:19;;;;;;;2.07;1.20;;;22.20;46.60;;;;;;5067976;28;20484;-76
2022/05/14 14:19:47;;;;;;;1.63;1.10;;;28.50;1.00;;;;;;5067383;28;20491;-76
2022/05/14 14:22:16;;;;;;;1.00;0.80;;;;;;;;;;5071667;28;20449;-73
2022/05/14 14:24:48;;;;;;;1.00;0.90;;;;;;;;;;5070136;28;20503;-74
2022/05/14 14:27:16;;;;;;;1.90;1.00;;;28.20;1.00;;;;;;5071291;28;20209;-75
2022/05/14 14:29:43;;;;;;;2.08;1.02;;;29.40;1.00;;;;;;5070760;28;20205;-74
2022/05/14 14:32:10;;;;;;;1.20;0.90;;;;;;;;;;5071457;28;20343;-75
2022/05/14 14:34:37;;;;;;;0.90;0.80;;;29.30;1.00;;;;;;5069937;28;20209;-75
2022/05/14 14:37:06;;;;;;;1.08;0.98;;;29.40;1.00;;;;;;5071321;28;20198;-77
2022/05/14 14:39:33;;;;;;;3.50;1.08;;;31.20;1.00;;;;;;5071366;28;20636;-75
2022/05/14 14:42:00;;;;;;;2.85;1.00;;;31.00;1.00;;;;;;5071102;28;20333;-75
2022/05/14 14:44:27;;;;;;;1.00;0.90;;;31.10;1.00;;;;;;5070838;28;20215;-76
2022/05/14 14:46:54;;;;;;;1.67;1.17;;;30.00;1.00;;;;;;5070059;28;20199;-75
2022/05/14 14:49:21;;;;;;;1.45;1.35;;;30.10;1.00;;;;;;5070649;28;20203;-76
2022/05/14 14:51:47;;;;;;;1.42;0.77;;;30.00;1.00;;;;;;5070092;28;20201;-75
2022/05/14 14:54:16;;;;;;;1.33;1.10;;;30.00;1.00;;;;;;5070739;28;20202;-76
2022/05/14 14:56:42;;;;;;;1.00;0.90;;;30.60;1.00;;;;;;5068003;28;20209;-77
2022/05/14 14:59:10;;;;;;;1.17;1.08;;;;;;;;;;5070550;28;20289;-77
2022/05/14 15:01:40;;;;;;;1.23;0.95;;;31.00;1.00;;;;;;5070046;28;20230;-76